createdAt,value
2017-08-29T00:01:21.739Z,68.40
2017-08-29T00:03:52.507Z,68.40
2017-08-29T00:06:23.201Z,68.40
2017-08-29T00:08:53.902Z,68.90
2017-08-29T00:11:24.862Z,68.90
2017-08-29T00:13:55.162Z,68.40
2017-08-29T00:16:25.892Z,68.40
2017-08-29T00:18:56.942Z,68.70
2017-08-29T00:21:28.419Z,68.00
2017-08-29T00:23:59.041Z,68.00
2017-08-29T00:26:29.415Z,68.20
2017-08-29T00:28:59.710Z,68.30
2017-08-29T00:31:31.433Z,67.80
2017-08-29T00:34:02.085Z,67.80
2017-08-29T00:36:33.076Z,68.20
2017-08-29T00:39:03.672Z,68.30
2017-08-29T00:41:35.642Z,68.00
2017-08-29T00:44:06.876Z,67.90
2017-08-29T00:46:37.822Z,67.80
2017-08-29T00:49:08.798Z,68.10
2017-08-29T00:51:39.521Z,68.10
2017-08-29T00:54:10.364Z,68.40
2017-08-29T00:56:41.214Z,68.70
2017-08-29T00:59:11.878Z,68.80
2017-08-29T01:01:42.925Z,69.10
2017-08-29T01:04:13.875Z,69.70
2017-08-29T01:06:45.373Z,69.90
2017-08-29T01:09:15.849Z,69.90
2017-08-29T01:11:46.566Z,70.30
2017-08-29T01:14:17.233Z,70.30
2017-08-29T01:16:48.317Z,70.10
2017-08-29T01:19:19.186Z,70.30
2017-08-29T01:21:50.151Z,70.70
2017-08-29T01:24:20.971Z,70.70
2017-08-29T01:26:51.918Z,70.00
2017-08-29T01:29:22.945Z,70.10
2017-08-29T01:31:53.713Z,70.20
2017-08-29T01:34:24.504Z,71.10
2017-08-29T01:36:55.250Z,71.50
2017-08-29T01:39:26.077Z,71.50
2017-08-29T01:41:57.363Z,70.90
2017-08-29T01:44:28.443Z,71.50
2017-08-29T01:46:59.522Z,71.40
2017-08-29T01:49:30.271Z,71.40
2017-08-29T01:52:01.937Z,71.70
2017-08-29T01:54:32.666Z,71.20
2017-08-29T01:57:04.326Z,71.00
2017-08-29T01:59:35.039Z,71.00
2017-08-29T02:02:07.670Z,71.00
2017-08-29T02:04:38.101Z,71.30
2017-08-29T02:07:09.344Z,71.50
2017-08-29T02:09:40.132Z,71.10
2017-08-29T02:12:11.093Z,71.50
2017-08-29T02:14:41.932Z,71.20
2017-08-29T02:17:12.765Z,71.40
2017-08-29T02:19:43.152Z,71.50
2017-08-29T02:22:13.721Z,71.40
2017-08-29T02:24:44.436Z,71.40
2017-08-29T02:27:14.882Z,71.40
2017-08-29T02:29:45.135Z,72.30
2017-08-29T02:32:16.452Z,72.60
2017-08-29T02:34:46.982Z,72.10
2017-08-29T02:37:17.748Z,72.50
2017-08-29T02:39:48.510Z,73.20
2017-08-29T02:42:19.977Z,72.60
2017-08-29T02:44:50.528Z,73.40
2017-08-29T02:47:21.258Z,72.80
2017-08-29T02:49:51.669Z,73.60
2017-08-29T02:52:22.554Z,73.90
2017-08-29T02:54:53.046Z,73.90
2017-08-29T02:57:23.581Z,73.20
2017-08-29T02:59:54.462Z,73.20
2017-08-29T03:02:26.276Z,72.90
2017-08-29T03:04:56.958Z,72.90
2017-08-29T03:07:28.154Z,73.00
2017-08-29T03:09:58.738Z,73.70
2017-08-29T03:12:29.385Z,73.40
2017-08-29T03:14:59.996Z,72.80
2017-08-29T03:17:30.546Z,73.50
2017-08-29T03:20:01.118Z,74.00
2017-08-29T03:22:32.283Z,73.60
2017-08-29T03:25:03.525Z,73.60
2017-08-29T03:27:34.244Z,73.80
2017-08-29T03:30:04.776Z,74.10
2017-08-29T03:32:35.553Z,73.30
2017-08-29T03:35:06.226Z,73.50
2017-08-29T03:37:37.066Z,73.30
2017-08-29T03:40:07.663Z,73.70
2017-08-29T03:42:38.634Z,73.30
2017-08-29T03:45:08.888Z,73.40
2017-08-29T03:47:39.995Z,73.20
2017-08-29T03:50:10.434Z,73.00
2017-08-29T03:52:41.358Z,74.30
2017-08-29T03:55:12.126Z,73.80
2017-08-29T03:57:42.538Z,74.30
2017-08-29T04:00:13.173Z,74.20
2017-08-29T04:02:44.890Z,74.80
2017-08-29T04:05:15.764Z,74.80
2017-08-29T04:07:46.372Z,74.50
2017-08-29T04:10:16.818Z,74.60
2017-08-29T04:12:47.962Z,74.70
2017-08-29T04:15:18.461Z,74.40
2017-08-29T04:17:48.855Z,74.40
2017-08-29T04:20:19.926Z,74.80
2017-08-29T04:22:51.001Z,74.70
2017-08-29T04:25:21.572Z,74.40
2017-08-29T04:27:52.797Z,75.10
2017-08-29T04:30:23.409Z,75.10
2017-08-29T04:32:54.014Z,74.50
2017-08-29T04:35:24.549Z,74.50
2017-08-29T04:37:55.046Z,74.50
2017-08-29T04:40:25.638Z,73.90
2017-08-29T04:42:55.937Z,74.50
2017-08-29T04:45:26.668Z,75.00
2017-08-29T04:47:57.770Z,74.40
2017-08-29T04:50:28.159Z,74.20
2017-08-29T04:52:58.699Z,73.70
2017-08-29T04:55:29.329Z,73.80
2017-08-29T04:58:00.371Z,73.80
2017-08-29T05:00:31.130Z,73.90
2017-08-29T05:03:01.729Z,74.20
2017-08-29T05:05:32.147Z,74.80
2017-08-29T05:08:02.819Z,75.30
2017-08-29T05:10:34.212Z,75.10
2017-08-29T05:13:04.840Z,75.10
2017-08-29T05:15:40.508Z,74.90
2017-08-29T05:18:10.963Z,74.40
2017-08-29T05:20:41.392Z,74.70
2017-08-29T05:23:11.729Z,75.10
2017-08-29T05:25:42.284Z,75.70
2017-08-29T05:28:12.721Z,75.70
2017-08-29T05:30:43.293Z,75.90
2017-08-29T05:33:14.102Z,76.50
2017-08-29T05:35:44.481Z,76.40
2017-08-29T05:38:21.277Z,77.00
2017-08-29T05:40:52.465Z,75.80
2017-08-29T05:43:23.277Z,75.70
2017-08-29T05:45:53.818Z,76.00
2017-08-29T05:48:24.233Z,75.80
2017-08-29T05:50:54.816Z,76.70
2017-08-29T05:53:25.498Z,76.40
2017-08-29T05:55:56.005Z,75.60
2017-08-29T05:58:26.911Z,75.70
2017-08-29T06:00:57.632Z,75.40
2017-08-29T06:03:28.604Z,75.70
2017-08-29T06:05:59.066Z,75.80
2017-08-29T06:08:29.881Z,75.70
2017-08-29T06:11:00.504Z,75.60
2017-08-29T06:13:30.946Z,75.80
2017-08-29T06:16:02.726Z,75.90
2017-08-29T06:18:33.142Z,75.90
2017-08-29T06:21:04.385Z,77.60
2017-08-29T06:23:35.145Z,78.10
2017-08-29T06:26:05.573Z,77.60
2017-08-29T06:28:35.938Z,76.10
2017-08-29T06:31:06.453Z,76.80
2017-08-29T06:33:36.894Z,74.70
2017-08-29T06:36:07.717Z,74.70
2017-08-29T06:38:38.105Z,72.50
2017-08-29T06:41:08.487Z,73.00
2017-08-29T06:43:39.116Z,72.60
2017-08-29T06:46:09.884Z,72.20
2017-08-29T06:48:40.257Z,71.20
2017-08-29T06:51:10.649Z,72.00
2017-08-29T06:53:40.985Z,70.90
2017-08-29T06:56:11.878Z,70.10
2017-08-29T06:58:42.401Z,70.50
2017-08-29T07:01:12.839Z,70.10
2017-08-29T07:03:44.213Z,68.70
2017-08-29T07:06:14.853Z,68.70
2017-08-29T07:08:45.281Z,69.10
2017-08-29T07:11:16.457Z,66.40
2017-08-29T07:13:47.361Z,66.40
2017-08-29T07:16:18.267Z,66.50
2017-08-29T07:18:48.806Z,67.40
2017-08-29T07:21:20.120Z,63.70
2017-08-29T07:23:50.889Z,63.50
2017-08-29T07:26:21.248Z,62.50
2017-08-29T07:28:52.013Z,62.60
2017-08-29T07:31:22.493Z,61.90
2017-08-29T07:33:53.031Z,61.20
2017-08-29T07:36:23.459Z,61.10
2017-08-29T07:38:54.020Z,64.30
2017-08-29T07:41:24.492Z,60.10
2017-08-29T07:43:56.069Z,60.10
2017-08-29T07:46:27.695Z,57.00
2017-08-29T07:48:58.447Z,56.40
2017-08-29T07:51:28.939Z,58.70
2017-08-29T07:53:59.411Z,58.00
2017-08-29T07:56:29.890Z,57.80
2017-08-29T07:59:00.331Z,55.80
2017-08-29T08:01:31.557Z,57.80
2017-08-29T08:04:02.026Z,57.80
2017-08-29T08:06:33.320Z,57.20
2017-08-29T08:09:04.099Z,57.50
2017-08-29T08:11:34.633Z,58.50
2017-08-29T08:14:05.045Z,55.80
2017-08-29T08:16:35.433Z,53.40
2017-08-29T08:19:05.858Z,53.60
2017-08-29T08:21:36.534Z,53.90
2017-08-29T08:24:06.980Z,55.20
2017-08-29T08:26:37.488Z,53.70
2017-08-29T08:29:08.280Z,55.10
2017-08-29T08:31:39.440Z,55.10
2017-08-29T08:34:10.873Z,55.10
2017-08-29T08:36:41.301Z,54.80
2017-08-29T08:39:11.736Z,54.50
2017-08-29T08:41:42.396Z,50.90
2017-08-29T08:44:12.898Z,52.00
2017-08-29T08:46:43.735Z,52.00
2017-08-29T08:49:14.286Z,49.60
2017-08-29T08:51:44.637Z,50.80
2017-08-29T08:54:14.961Z,51.10
2017-08-29T08:56:45.810Z,50.70
2017-08-29T08:59:16.467Z,50.50
2017-08-29T09:01:46.867Z,48.70
2017-08-29T09:04:17.442Z,50.30
2017-08-29T09:06:47.872Z,47.40
2017-08-29T09:09:18.721Z,47.60
2017-08-29T09:11:49.191Z,47.20
2017-08-29T09:14:20.439Z,49.50
2017-08-29T09:16:51.045Z,49.50
2017-08-29T09:19:21.590Z,49.60
2017-08-29T09:21:52.768Z,47.50
2017-08-29T09:24:23.648Z,48.50
2017-08-29T09:26:54.496Z,49.60
2017-08-29T09:29:25.096Z,48.60
2017-08-29T09:31:56.810Z,48.30
2017-08-29T09:34:27.550Z,48.80
2017-08-29T09:36:58.395Z,48.60
2017-08-29T09:39:28.775Z,46.80
2017-08-29T09:41:59.582Z,48.90
2017-08-29T09:44:30.029Z,45.80
2017-08-29T09:47:00.390Z,46.10
2017-08-29T09:49:30.976Z,47.30
2017-08-29T09:52:01.564Z,47.40
2017-08-29T09:54:32.075Z,48.90
2017-08-29T09:57:02.977Z,50.10
2017-08-29T09:59:34.232Z,48.30
2017-08-29T10:02:04.772Z,48.30
2017-08-29T10:04:35.282Z,50.00
2017-08-29T10:07:06.030Z,49.70
2017-08-29T10:09:36.768Z,48.90
2017-08-29T10:12:07.171Z,50.30
2017-08-29T10:14:37.629Z,49.30
2017-08-29T10:17:08.195Z,49.10
2017-08-29T10:19:38.789Z,49.40
2017-08-29T10:22:09.449Z,48.30
2017-08-29T10:24:40.178Z,45.70
2017-08-29T10:27:10.715Z,45.80
2017-08-29T10:29:41.194Z,44.20
2017-08-29T10:32:11.914Z,47.80
2017-08-29T10:34:43.092Z,48.20
2017-08-29T10:37:13.566Z,48.20
2017-08-29T10:39:45.177Z,47.80
2017-08-29T10:42:16.145Z,47.80
2017-08-29T10:44:46.444Z,45.60
2017-08-29T10:47:17.102Z,44.70
2017-08-29T10:49:47.565Z,42.30
2017-08-29T10:52:19.019Z,44.60
2017-08-29T10:54:49.609Z,44.60
2017-08-29T10:57:20.042Z,48.20
2017-08-29T10:59:50.535Z,49.20
2017-08-29T11:02:21.347Z,46.90
2017-08-29T11:04:51.793Z,47.60
2017-08-29T11:07:22.121Z,47.30
2017-08-29T11:09:53.011Z,46.40
2017-08-29T11:12:23.369Z,44.50
2017-08-29T11:14:53.809Z,43.80
2017-08-29T11:17:24.240Z,45.50
2017-08-29T11:19:55.089Z,43.30
2017-08-29T11:22:25.614Z,43.50
2017-08-29T11:24:56.184Z,41.50
2017-08-29T11:27:27.029Z,41.90
2017-08-29T11:29:57.654Z,42.70
2017-08-29T11:32:28.184Z,43.20
2017-08-29T11:34:58.753Z,43.80
2017-08-29T11:37:29.494Z,43.20
2017-08-29T11:40:00.429Z,44.70
2017-08-29T11:42:30.957Z,44.10
2017-08-29T11:45:02.002Z,41.80
2017-08-29T11:47:32.574Z,42.50
2017-08-29T11:50:04.011Z,42.60
2017-08-29T11:52:34.569Z,42.60
2017-08-29T11:55:05.866Z,40.10
2017-08-29T11:57:36.393Z,40.10
2017-08-29T12:00:07.284Z,41.60
2017-08-29T12:02:37.837Z,40.80
2017-08-29T12:05:08.254Z,41.00
2017-08-29T12:07:38.903Z,41.00
2017-08-29T12:10:09.461Z,39.90
2017-08-29T12:12:40.044Z,39.60
2017-08-29T12:15:10.645Z,40.30
2017-08-29T12:17:41.055Z,42.00
2017-08-29T12:20:19.533Z,41.10
2017-08-29T12:22:51.090Z,42.70
2017-08-29T12:25:21.853Z,42.70
2017-08-29T12:27:53.007Z,42.90
2017-08-29T12:30:23.850Z,41.80
2017-08-29T12:32:54.217Z,40.10
2017-08-29T12:35:24.631Z,39.50
2017-08-29T12:37:55.265Z,39.80
2017-08-29T12:40:25.614Z,40.50
2017-08-29T12:42:56.052Z,42.40
2017-08-29T12:45:26.755Z,41.50
2017-08-29T12:47:57.945Z,42.40
2017-08-29T12:50:28.342Z,40.90
2017-08-29T12:52:58.816Z,41.60
2017-08-29T12:55:29.849Z,42.70
2017-08-29T12:58:00.396Z,41.30
2017-08-29T13:00:30.874Z,41.20
2017-08-29T13:03:01.290Z,37.80
2017-08-29T13:05:31.839Z,38.50
2017-08-29T13:08:02.251Z,40.10
2017-08-29T13:10:33.831Z,42.40
2017-08-29T13:13:04.214Z,42.50
2017-08-29T13:15:34.626Z,41.80
2017-08-29T13:18:05.136Z,40.90
2017-08-29T13:20:35.868Z,41.90
2017-08-29T13:23:06.333Z,41.00
2017-08-29T13:25:37.046Z,38.60
2017-08-29T13:28:07.548Z,37.70
2017-08-29T13:30:38.009Z,39.00
2017-08-29T13:33:08.465Z,38.60
2017-08-29T13:35:39.308Z,38.00
2017-08-29T13:38:10.479Z,38.20
2017-08-29T13:40:40.929Z,38.40
2017-08-29T13:43:11.411Z,39.40
2017-08-29T13:45:42.390Z,39.20
2017-08-29T13:48:12.819Z,37.40
2017-08-29T13:50:43.245Z,37.10
2017-08-29T13:53:13.743Z,37.10
2017-08-29T13:55:44.163Z,37.00
2017-08-29T13:58:14.653Z,37.70
2017-08-29T14:00:46.030Z,38.70
2017-08-29T14:03:16.466Z,38.60
2017-08-29T14:05:47.871Z,38.70
2017-08-29T14:08:18.317Z,37.40
2017-08-29T14:10:48.871Z,37.60
2017-08-29T14:13:19.325Z,38.80
2017-08-29T14:15:49.803Z,38.40
2017-08-29T14:18:20.259Z,39.60
2017-08-29T14:20:50.755Z,37.80
2017-08-29T14:23:21.584Z,36.60
2017-08-29T14:25:52.078Z,37.70
2017-08-29T14:28:22.539Z,37.60
2017-08-29T14:30:53.009Z,37.00
2017-08-29T14:33:24.731Z,37.80
2017-08-29T14:35:55.216Z,38.10
2017-08-29T14:38:25.686Z,39.30
2017-08-29T14:40:56.503Z,39.60
2017-08-29T14:43:26.825Z,39.90
2017-08-29T14:45:57.289Z,39.50
2017-08-29T14:49:37.298Z,38.10
2017-08-29T14:52:07.691Z,38.20
2017-08-29T14:54:38.124Z,38.30
2017-08-29T14:57:10.349Z,37.40
2017-08-29T14:59:40.754Z,37.60
2017-08-29T15:02:11.997Z,37.20
2017-08-29T15:04:42.564Z,37.20
2017-08-29T15:07:12.935Z,37.00
2017-08-29T15:09:43.408Z,38.00
2017-08-29T15:12:14.459Z,38.70
2017-08-29T15:14:44.837Z,38.70
2017-08-29T15:17:15.503Z,39.50
2017-08-29T15:19:46.083Z,39.30
2017-08-29T15:22:16.513Z,40.10
2017-08-29T15:24:47.062Z,39.60
2017-08-29T15:27:18.158Z,38.70
2017-08-29T15:29:48.567Z,38.60
2017-08-29T15:32:19.433Z,39.10
2017-08-29T15:34:50.558Z,39.30
2017-08-29T15:37:21.449Z,39.40
2017-08-29T15:39:52.674Z,38.20
2017-08-29T15:42:23.458Z,38.10
2017-08-29T15:44:53.864Z,38.30
2017-08-29T15:47:24.525Z,38.40
2017-08-29T15:49:54.943Z,38.50
2017-08-29T15:52:25.552Z,37.60
2017-08-29T15:54:55.952Z,37.70
2017-08-29T15:57:27.263Z,38.20
2017-08-29T15:59:57.945Z,38.70
2017-08-29T16:02:28.281Z,39.40
2017-08-29T16:04:58.740Z,39.30
2017-08-29T16:07:29.075Z,39.10
2017-08-29T16:10:00.121Z,39.80
2017-08-29T16:12:31.046Z,39.90
2017-08-29T16:15:01.767Z,40.10
2017-08-29T16:17:35.968Z,40.70
2017-08-29T16:20:06.814Z,41.30
2017-08-29T16:22:37.231Z,41.00
2017-08-29T16:25:07.696Z,41.30
2017-08-29T16:27:38.095Z,41.30
2017-08-29T16:30:08.486Z,41.10
2017-08-29T16:32:40.390Z,41.50
2017-08-29T16:35:11.075Z,41.90
2017-08-29T16:37:42.256Z,41.80
2017-08-29T16:40:13.107Z,41.70
2017-08-29T16:42:45.066Z,41.20
2017-08-29T16:45:15.490Z,41.30
2017-08-29T16:47:45.870Z,41.50
2017-08-29T16:50:16.497Z,41.80
2017-08-29T16:52:46.891Z,42.60
2017-08-29T16:55:17.856Z,43.30
2017-08-29T16:57:48.636Z,43.90
2017-08-29T17:00:19.168Z,43.40
2017-08-29T17:02:49.694Z,43.20
2017-08-29T17:05:20.608Z,43.50
2017-08-29T17:07:51.606Z,43.20
2017-08-29T17:10:22.208Z,43.00
2017-08-29T17:12:52.637Z,43.10
2017-08-29T17:15:23.092Z,43.60
2017-08-29T17:17:53.544Z,44.10
2017-08-29T17:20:24.450Z,44.30
2017-08-29T17:22:55.636Z,44.10
2017-08-29T17:25:26.707Z,44.40
2017-08-29T17:27:57.044Z,45.00
2017-08-29T17:32:51.905Z,45.10
2017-08-29T17:35:22.890Z,46.00
2017-08-29T17:37:53.437Z,45.60
2017-08-29T17:40:24.302Z,45.90
2017-08-29T17:42:54.696Z,45.80
2017-08-29T17:45:25.270Z,45.80
2017-08-29T17:47:55.722Z,45.80
2017-08-29T17:50:26.257Z,46.20
2017-08-29T17:52:57.276Z,47.20
2017-08-29T17:55:27.701Z,47.00
2017-08-29T17:57:58.485Z,47.30
2017-08-29T18:00:28.993Z,47.40
2017-08-29T18:02:59.785Z,47.50
2017-08-29T18:05:30.745Z,47.60
2017-08-29T18:08:01.886Z,47.70
2017-08-29T18:10:32.850Z,48.30
2017-08-29T18:13:03.671Z,48.50
2017-08-29T18:15:34.329Z,48.80
2017-08-29T18:18:05.471Z,49.00
2017-08-29T18:20:35.845Z,49.30
2017-08-29T18:23:07.532Z,49.80
2017-08-29T18:25:38.589Z,49.70
2017-08-29T18:28:09.286Z,50.00
2017-08-29T18:30:39.755Z,50.00
2017-08-29T18:33:16.564Z,50.20
2017-08-29T18:35:46.965Z,50.60
2017-08-29T18:38:17.398Z,51.00
2017-08-29T18:40:48.068Z,51.30
2017-08-29T18:43:18.525Z,51.60
2017-08-29T18:45:49.657Z,51.80
2017-08-29T18:48:20.154Z,52.00
2017-08-29T18:50:51.993Z,52.80
2017-08-29T18:53:22.829Z,52.50
2017-08-29T18:55:54.672Z,53.00
2017-08-29T18:58:26.190Z,53.30
2017-08-29T19:01:04.362Z,53.40
2017-08-29T19:03:37.428Z,53.60
2017-08-29T19:06:08.495Z,54.20
2017-08-29T19:08:39.527Z,54.30
2017-08-29T19:11:09.964Z,55.00
2017-08-29T19:13:40.411Z,55.50
2017-08-29T19:16:19.624Z,55.90
2017-08-29T19:18:55.691Z,56.40
2017-08-29T19:21:26.610Z,56.30
2017-08-29T19:23:57.484Z,56.70
2017-08-29T19:26:28.103Z,56.80
2017-08-29T19:28:59.029Z,57.10
2017-08-29T19:31:29.937Z,57.10
2017-08-29T19:34:01.820Z,57.70
2017-08-29T19:36:33.167Z,57.70
2017-08-29T19:39:04.224Z,57.70
2017-08-29T19:41:35.870Z,57.70
2017-08-29T19:44:07.588Z,57.90
2017-08-29T19:46:40.262Z,57.60
2017-08-29T19:49:10.929Z,58.30
2017-08-29T19:51:41.818Z,58.60
2017-08-29T19:54:12.800Z,58.90
2017-08-29T19:56:43.836Z,59.10
2017-08-29T19:59:15.362Z,59.10
2017-08-29T20:01:51.570Z,59.70
2017-08-29T20:04:32.689Z,60.70
2017-08-29T20:07:09.743Z,60.70
2017-08-29T20:09:48.087Z,60.80
2017-08-29T20:12:25.028Z,61.00
2017-08-29T20:17:25.901Z,61.40
2017-08-29T20:19:57.642Z,61.70
2017-08-29T20:22:28.202Z,61.60
2017-08-29T20:25:00.992Z,62.40
2017-08-29T20:27:31.477Z,62.30
2017-08-29T20:30:01.830Z,62.40
2017-08-29T20:32:32.569Z,62.20
2017-08-29T20:35:03.018Z,62.70
2017-08-29T20:37:33.641Z,62.90
2017-08-29T20:40:05.021Z,62.90
2017-08-29T20:42:35.637Z,63.60
2017-08-29T20:45:06.161Z,63.30
2017-08-29T20:47:36.718Z,63.80
2017-08-29T20:50:07.838Z,64.10
2017-08-29T20:52:38.282Z,64.60
2017-08-29T20:55:08.750Z,65.80
2017-08-29T20:57:39.403Z,65.50
2017-08-29T21:00:10.446Z,65.30
2017-08-29T21:02:41.073Z,65.30
2017-08-29T21:05:11.649Z,65.20
2017-08-29T21:07:42.041Z,66.10
2017-08-29T21:10:12.838Z,66.00
2017-08-29T21:12:43.497Z,65.20
2017-08-29T21:15:14.165Z,65.30
2017-08-29T21:17:44.677Z,65.20
2017-08-29T21:20:16.935Z,64.70
2017-08-29T21:22:47.792Z,64.70
2017-08-29T21:25:18.322Z,64.30
2017-08-29T21:27:48.927Z,64.60
2017-08-29T21:30:19.850Z,65.20
2017-08-29T21:32:50.205Z,66.50
2017-08-29T21:35:21.166Z,66.30
2017-08-29T21:37:52.253Z,66.90
2017-08-29T21:40:23.406Z,67.00
2017-08-29T21:42:53.858Z,67.30
2017-08-29T21:45:24.623Z,67.10
2017-08-29T21:47:54.950Z,67.30
2017-08-29T21:50:25.478Z,67.30
2017-08-29T21:52:56.040Z,67.80
2017-08-29T21:55:26.802Z,67.50
2017-08-29T21:57:57.046Z,68.30
2017-08-29T22:00:30.769Z,68.80
2017-08-29T22:03:01.150Z,68.20
2017-08-29T22:05:32.051Z,69.70
2017-08-29T22:08:02.393Z,69.40
2017-08-29T22:10:32.965Z,68.90
2017-08-29T22:13:03.967Z,68.70
2017-08-29T22:15:34.483Z,69.00
2017-08-29T22:18:04.857Z,69.20
2017-08-29T22:20:36.599Z,69.40
2017-08-29T22:23:06.933Z,69.30
2017-08-29T22:25:37.924Z,68.90
2017-08-29T22:28:08.610Z,69.30
2017-08-29T22:30:39.601Z,71.00
2017-08-29T22:33:09.926Z,71.50
2017-08-29T22:35:40.773Z,72.10
2017-08-29T22:38:11.393Z,72.10
2017-08-29T22:40:42.779Z,72.00
2017-08-29T22:43:13.254Z,71.90
2017-08-29T22:45:43.681Z,72.60
2017-08-29T22:48:13.910Z,71.90
2017-08-29T22:50:46.302Z,71.40
2017-08-29T22:53:17.102Z,71.90
2017-08-29T22:55:48.052Z,72.00
2017-08-29T22:58:19.361Z,72.30
2017-08-29T23:00:50.204Z,72.20
2017-08-29T23:03:20.842Z,72.80
2017-08-29T23:05:52.526Z,75.90
2017-08-29T23:08:23.089Z,75.80
2017-08-29T23:10:54.253Z,76.30
2017-08-29T23:13:24.893Z,75.20
2017-08-29T23:15:56.538Z,74.30
2017-08-29T23:18:27.181Z,74.20
2017-08-29T23:20:59.437Z,74.10
2017-08-29T23:23:29.941Z,74.10
2017-08-29T23:26:00.880Z,74.90
2017-08-29T23:28:31.617Z,74.40
2017-08-29T23:31:02.317Z,74.50
2017-08-29T23:33:33.111Z,75.90
2017-08-29T23:36:04.042Z,76.60
2017-08-29T23:38:34.270Z,77.00
2017-08-29T23:41:05.254Z,77.00
2017-08-29T23:43:36.769Z,76.90
2017-08-29T23:46:07.545Z,76.90
2017-08-29T23:48:38.258Z,77.00
2017-08-29T23:51:09.101Z,76.50
2017-08-29T23:53:39.683Z,77.20
2017-08-29T23:56:10.594Z,77.10
2017-08-29T23:58:41.295Z,76.70
